Flight Track Log - Related Links

Times and Time Zones

All times are in EDT time to prevent confusion due to time zone crossing. See the N75ZM flight status page for this flight to view local times or setup timezone preferences in your user account.

Time Position Orientation Groundspeed Altitude Reporting Facility
EDT Latitude Longitude Course Direction KTS MPH feet Rate Location/Type
Sat 09:12:49 AM 42.2428 -83.5394 339° North 111 128 1,300  Level Cleveland Center
Sat 09:14:14 AM 42.2706 -83.5942 304° West 121 139 2,900 1,105 Climbing Cleveland Center
Sat 09:15:21 AM 42.2883 -83.6314 303° West 120 138 4,100 1,031 Climbing Cleveland Center
Sat 09:16:22 AM 42.3256 -83.6472 343° North 118 136 5,100 934 Climbing Cleveland Center
Sat 09:17:23 AM 42.3544 -83.6628 338° Northwest 120 138 6,000 496 Climbing Cleveland Center
Sat 09:18:00 AM 42.4373 -83.6354 339° North  Level FlightAware Approximate
Sat 09:18:23 AM 42.3914 -83.6842 337° Northwest 136 157 6,100  Level Cleveland Center
Sat 09:19:24 AM 42.4283 -83.7003 342° North 158 182 6,100  Level Cleveland Center
Sat 09:20:19 AM 42.4675 -83.7217 338° Northwest 150 173 6,100  Level Cleveland Center
Sat 09:21:20 AM 42.5064 -83.7406 340° North 151 174 6,100  Level Cleveland Center
Sat 09:23:00 AM 42.5673 -83.7572 349° North  Level FlightAware Approximate
Sat 09:30:00 AM 42.8252 -83.8390 339° North  Level FlightAware Approximate
Sat 09:31:00 AM 42.8599 -83.8576 339° North  Level FlightAware Approximate
Sat 09:32:00 AM 42.8946 -83.8762 339° North  Level FlightAware Approximate
Sat 09:33:00 AM 42.9293 -83.8949 339° North  Level FlightAware Approximate
Sat 09:34:00 AM 42.9640 -83.9135 339° North  Level FlightAware Approximate
Sat 09:35:00 AM 42.9987 -83.9322 339° North  Level FlightAware Approximate
Sat 09:36:00 AM 43.0334 -83.9509 339° North  Level FlightAware Approximate
Sat 09:37:00 AM 43.0681 -83.9696 338° Northwest  Level FlightAware Approximate
Sat 09:38:00 AM 43.1028 -83.9884 338° Northwest  Level FlightAware Approximate
Sat 09:39:00 AM 43.1375 -84.0071 338° Northwest  Level FlightAware Approximate
Sat 09:40:00 AM 43.1722 -84.0259 338° Northwest  Level FlightAware Approximate
Sat 09:41:00 AM 43.2069 -84.0447 338° Northwest  Level FlightAware Approximate
Sat 09:42:00 AM 43.2416 -84.0637 338° Northwest  Level FlightAware Approximate
Sat 09:43:00 AM 43.2762 -84.0828 338° Northwest  Level FlightAware Approximate
Sat 09:44:00 AM 43.3108 -84.1019 338° Northwest  Level FlightAware Approximate
Sat 09:45:00 AM 43.3454 -84.1211 338° Northwest  Level FlightAware Approximate
Sat 09:46:00 AM 43.3800 -84.1403 338° Northwest  Level FlightAware Approximate
Sat 09:47:00 AM 43.4146 -84.1594 338° Northwest  Level FlightAware Approximate
Sat 09:48:00 AM 43.4492 -84.1787 338° Northwest  Level FlightAware Approximate
Sat 09:49:00 AM 43.4838 -84.1979 338° Northwest  Level FlightAware Approximate
Sat 09:50:00 AM 43.5183 -84.2171 338° Northwest  Level FlightAware Approximate
Sat 09:51:00 AM 43.5529 -84.2364 338° Northwest  Level FlightAware Approximate
Sat 09:52:00 AM 43.5875 -84.2557 338° Northwest  Level FlightAware Approximate
Sat 09:53:00 AM 43.6221 -84.2750 338° Northwest  Level FlightAware Approximate
Sat 09:54:00 AM 43.6567 -84.2944 338° Northwest  Level FlightAware Approximate
Sat 09:55:00 AM 43.6916 -84.3124 340° North  Level FlightAware Approximate
Sat 09:56:00 AM 43.7267 -84.3300 340° North  Level FlightAware Approximate
Sat 09:57:00 AM 43.7612 -84.3495 337° Northwest  Level FlightAware Approximate

Login

Don't have an account? Register now (free) for customized features, flight alerts, and more!